Terminal Aerodrome Forecast
Issued by NWS

Home | Current Version | Previous Version | Text Only | Print | Product List | Glossary On
Versions: 1 2 3 4 5 6 7 8 9 10 11 12 13 14
000
FTUS46 KSGX 301720
TAFSNA
TAF
KSNA 301720Z 3018/3118 21006KT P6SM SKC
     FM302000 22009KT P6SM FEW250
     FM310100 VRB05KT P6SM FEW012 SCT250
     FM311100 16005KT P6SM BKN015
     FM311600 20006KT P6SM SCT018 SCT250=

USA.gov is the U.S. government's official web portal to all federal, state and local government web resources and services.